Time;durP1;ratioP1;P1;durP2;ratioP2;P2;SDS_P1;SDS_P2;PMS_P1;PMS_P2;Temp;Humidity;BMP_temperature;BMP_pressure;BME280_temperature;BME280_humidity;BME280_pressure;Samples;Min_cycle;Max_cycle;Signal;HPM_P1;HPM_P2
2023/01/14 00:02:33;;;;;;;5.63;3.30;;;5.30;99.90;;;;;;5006626;28;20478;-88
2023/01/14 00:05:03;;;;;;;4.40;3.22;;;5.40;99.90;;;;;;5033125;28;20207;-87
2023/01/14 00:07:33;;;;;;;4.90;2.65;;;5.40;99.90;;;;;;5031597;28;20268;-87
2023/01/14 00:10:05;;;;;;;5.05;2.70;;;5.30;99.90;;;;;;5015630;28;20207;-88
2023/01/14 00:12:34;;;;;;;5.70;3.50;;;5.20;99.90;;;;;;5012183;28;20213;-86
2023/01/14 00:15:04;;;;;;;6.05;3.67;;;5.10;99.90;;;;;;5012885;28;20204;-89
2023/01/14 00:17:31;;;;;;;6.05;3.20;;;5.10;99.90;;;;;;5003370;28;20284;-88
2023/01/14 00:19:59;;;;;;;6.03;3.20;;;5.10;99.90;;;;;;4989345;28;20205;-84
2023/01/14 00:22:29;;;;;;;5.78;3.80;;;5.20;99.90;;;;;;5009116;28;20213;-85
2023/01/14 00:25:01;;;;;;;7.20;4.07;;;5.30;99.90;;;;;;5024108;28;20200;-85
2023/01/14 00:27:34;;;;;;;4.65;3.75;;;5.10;99.90;;;;;;5009215;28;20208;-84
2023/01/14 00:30:04;;;;;;;3.58;3.28;;;5.30;99.90;;;;;;5023741;28;20193;-85
2023/01/14 00:32:37;;;;;;;4.95;4.45;;;5.00;99.90;;;;;;5009268;28;20528;-85
2023/01/14 00:35:11;;;;;;;6.45;3.95;;;4.90;99.90;;;;;;5023922;28;20226;-86
2023/01/14 00:37:47;;;;;;;6.95;3.72;;;4.90;99.90;;;;;;5034142;28;20196;-86
2023/01/14 00:40:25;;;;;;;6.63;3.72;;;5.00;99.90;;;;;;5011227;28;20239;-88
2023/01/14 00:42:52;;;;;;;4.05;3.63;;;4.80;99.90;;;;;;5004914;28;20228;-85
2023/01/14 00:45:21;;;;;;;5.57;4.50;;;5.00;99.90;;;;;;5006342;28;20219;-85
2023/01/14 00:47:49;;;;;;;3.95;3.55;;;5.00;99.90;;;;;;5010371;28;20205;-85
2023/01/14 00:50:18;;;;;;;3.65;3.20;;;4.80;99.90;;;;;;5006987;28;20632;-86
2023/01/14 00:53:07;;;;;;;11.80;3.90;;;5.00;99.90;;;;;;5017304;28;20228;-85
2023/01/14 00:55:35;;;;;;;4.95;3.20;;;4.90;99.90;;;;;;4995415;28;20635;-84
2023/01/14 00:58:03;;;;;;;6.32;3.20;;;5.10;99.90;;;;;;5006987;28;20214;-88
2023/01/14 01:00:31;;;;;;;5.55;3.38;;;5.00;99.90;;;;;;5004854;28;20208;-85
2023/01/14 01:03:00;;;;;;;3.67;3.22;;;4.80;99.90;;;;;;5024206;28;20239;-87
2023/01/14 01:05:34;;;;;;;5.60;2.78;;;4.90;99.90;;;;;;5018831;28;20197;-86
2023/01/14 01:08:11;;;;;;;2.90;2.70;;;4.90;99.90;;;;;;5027462;28;20184;-86
2023/01/14 01:10:45;;;;;;;10.15;2.70;;;5.00;99.90;;;;;;5028692;28;20234;-86
2023/01/14 01:13:13;;;;;;;4.13;2.65;;;5.00;99.90;;;;;;5029317;28;20204;-86
2023/01/14 01:15:42;;;;;;;5.03;2.30;;;5.30;99.90;;;;;;5017941;28;20271;-84
2023/01/14 01:18:26;;;;;;;4.90;2.75;;;5.10;99.90;;;;;;4994591;28;20213;-86
2023/01/14 01:21:14;;;;;;;3.22;2.40;;;5.10;99.90;;;;;;5011630;28;20272;-86
2023/01/14 01:23:48;;;;;;;2.90;1.85;;;5.10;99.90;;;;;;5027268;28;20232;-86
2023/01/14 01:26:28;;;;;;;4.43;2.67;;;5.00;99.90;;;;;;5006497;28;20217;-85
2023/01/14 01:28:58;;;;;;;2.80;2.40;;;5.00;99.90;;;;;;5007913;28;20589;-85
2023/01/14 01:31:27;;;;;;;11.85;2.45;;;5.00;99.90;;;;;;5013672;28;20243;-85
2023/01/14 01:33:56;;;;;;;6.05;2.53;;;5.00;99.90;;;;;;5026660;28;20304;-84
2023/01/14 01:36:28;;;;;;;2.42;2.22;;;5.00;99.90;;;;;;4994279;28;20220;-84
2023/01/14 01:38:55;;;;;;;4.85;2.55;;;4.90;99.90;;;;;;5009242;28;20208;-87
2023/01/14 01:41:34;;;;;;;5.07;2.20;;;4.90;99.90;;;;;;4999494;28;20234;-86
2023/01/14 01:44:28;;;;;;;5.63;2.78;;;5.10;99.90;;;;;;5006431;28;20515;-83
2023/01/14 01:46:55;;;;;;;5.78;2.10;;;5.20;99.90;;;;;;5009572;28;20201;-87
2023/01/14 01:49:35;;;;;;;4.93;2.65;;;5.00;99.90;;;;;;5035700;28;20222;-86
2023/01/14 01:52:18;;;;;;;3.22;2.63;;;4.90;99.90;;;;;;5025690;28;20222;-84
2023/01/14 01:54:53;;;;;;;3.45;2.38;;;4.90;99.90;;;;;;5024499;28;20504;-85
2023/01/14 01:57:27;;;;;;;2.60;2.10;;;4.90;99.90;;;;;;5025511;28;20212;-85
2023/01/14 02:00:03;;;;;;;6.22;3.45;;;4.80;99.90;;;;;;5022354;28;20247;-86
2023/01/14 02:02:33;;;;;;;1.98;1.77;;;4.80;99.90;;;;;;5009714;28;20189;-87
2023/01/14 02:05:09;;;;;;;9.20;2.58;;;4.90;99.90;;;;;;5010146;28;20204;-88
2023/01/14 02:07:36;;;;;;;3.45;2.25;;;5.00;99.90;;;;;;5030266;28;20200;-85
2023/01/14 02:10:07;;;;;;;4.60;2.67;;;5.10;99.90;;;;;;5008623;28;20518;-85
2023/01/14 02:12:52;;;;;;;6.20;3.10;;;5.10;99.90;;;;;;5006839;28;20595;-84
2023/01/14 02:15:43;;;;;;;4.07;2.40;;;5.10;99.90;;;;;;5040921;28;20208;-88
2023/01/14 02:18:35;;;;;;;4.90;2.92;;;5.10;99.90;;;;;;5024425;28;20205;-86
2023/01/14 02:21:25;;;;;;;3.35;2.95;;;5.00;99.90;;;;;;5020747;28;20220;-85
2023/01/14 02:24:14;;;;;;;3.60;2.88;;;4.90;99.90;;;;;;5023439;28;20236;-85
2023/01/14 02:26:54;;;;;;;3.95;2.78;;;4.70;99.90;;;;;;5020846;28;20254;-92
2023/01/14 02:30:11;;;;;;;3.25;2.95;;;4.50;99.90;;;;;;5031617;28;20206;-90
2023/01/14 02:33:13;;;;;;;4.65;2.95;;;4.50;99.90;;;;;;4981259;28;20221;-85
2023/01/14 02:35:58;;;;;;;5.93;2.40;;;4.60;99.90;;;;;;4980055;28;20209;-84
2023/01/14 02:38:50;;;;;;;5.40;2.78;;;4.70;99.90;;;;;;5017361;28;20266;-84
2023/01/14 02:44:31;;;;;;;2.70;2.20;;;4.40;99.90;;;;;;5020083;28;20220;-87
2023/01/14 02:47:03;;;;;;;4.25;2.50;;;4.50;99.90;;;;;;5028169;28;20207;-84
2023/01/14 02:49:36;;;;;;;3.47;2.42;;;4.50;99.90;;;;;;5005682;28;20203;-83
2023/01/14 02:52:07;;;;;;;8.07;2.55;;;4.40;99.90;;;;;;5009480;28;20227;-83
2023/01/14 02:54:35;;;;;;;5.65;2.95;;;4.50;99.90;;;;;;5023420;28;20200;-83
2023/01/14 02:57:15;;;;;;;4.00;3.38;;;4.50;99.90;;;;;;5011924;28;20263;-83
2023/01/14 03:00:08;;;;;;;5.57;2.63;;;4.50;99.90;;;;;;5039464;28;20219;-83
2023/01/14 03:03:02;;;;;;;6.00;2.95;;;4.30;99.90;;;;;;5011685;28;20429;-82
2023/01/14 03:05:56;;;;;;;3.47;1.95;;;4.10;99.90;;;;;;5017557;28;20248;-87
2023/01/14 03:08:43;;;;;;;2.55;1.95;;;4.40;99.90;;;;;;5005756;28;20196;-86
2023/01/14 03:11:10;;;;;;;3.40;1.85;;;4.40;99.90;;;;;;5011964;28;20264;-85
2023/01/14 03:13:59;;;;;;;3.60;2.63;;;4.50;99.90;;;;;;5028378;28;20204;-87
2023/01/14 03:16:35;;;;;;;2.35;2.13;;;4.70;99.90;;;;;;5018441;28;20205;-88
2023/01/14 03:19:35;;;;;;;2.85;1.80;;;4.70;99.90;;;;;;5008652;28;20234;-84
2023/01/14 03:22:05;;;;;;;3.35;1.95;;;4.70;99.90;;;;;;4993861;28;20234;-88
2023/01/14 03:24:40;;;;;;;1.77;1.67;;;4.50;99.90;;;;;;5005592;28;20270;-88
2023/01/14 03:27:11;;;;;;;3.08;1.80;;;4.60;99.90;;;;;;5009713;28;20279;-85
2023/01/14 03:29:43;;;;;;;5.45;3.58;;;4.90;99.90;;;;;;5008892;28;20216;-85
2023/01/14 03:32:18;;;;;;;2.30;1.83;;;4.70;99.90;;;;;;5034895;28;20224;-86
2023/01/14 03:34:53;;;;;;;2.63;2.00;;;4.70;99.90;;;;;;4997360;28;20228;-88
2023/01/14 03:37:25;;;;;;;3.92;2.47;;;4.80;99.90;;;;;;5021121;28;20208;-87
2023/01/14 03:39:57;;;;;;;2.95;2.75;;;4.80;99.90;;;;;;5036257;28;20212;-88
2023/01/14 03:42:28;;;;;;;4.38;2.15;;;4.60;99.90;;;;;;5029638;28;20252;-85
2023/01/14 03:45:13;;;;;;;7.15;2.75;;;4.90;99.90;;;;;;5036752;28;20216;-84
2023/01/14 03:47:42;;;;;;;4.80;3.15;;;4.70;99.90;;;;;;5005660;28;20258;-84
2023/01/14 03:50:18;;;;;;;5.38;3.53;;;5.10;99.90;;;;;;5022905;28;20216;-88
2023/01/14 03:53:17;;;;;;;4.05;3.08;;;4.90;99.90;;;;;;5005136;28;20915;-85
2023/01/14 03:55:50;;;;;;;4.68;3.42;;;4.80;99.90;;;;;;5027178;28;20428;-85
2023/01/14 03:58:37;;;;;;;7.65;3.40;;;5.00;99.90;;;;;;5023834;28;20209;-84
2023/01/14 04:01:22;;;;;;;8.32;3.13;;;5.10;99.90;;;;;;5025885;28;20266;-84
2023/01/14 04:03:52;;;;;;;4.38;3.47;;;5.30;99.90;;;;;;5013674;28;20273;-88
2023/01/14 04:06:20;;;;;;;5.10;4.55;;;5.70;99.90;;;;;;5003108;28;20217;-84
2023/01/14 04:08:47;;;;;;;6.13;3.05;;;5.70;99.90;;;;;;5018988;28;20284;-84
2023/01/14 04:11:17;;;;;;;5.38;2.63;;;5.90;99.90;;;;;;5008163;28;20201;-84
2023/01/14 04:16:32;;;;;;;3.97;2.20;;;5.90;99.90;;;;;;5027339;28;20200;-84
2023/01/14 04:19:00;;;;;;;3.90;2.35;;;5.80;99.90;;;;;;5017237;28;20580;-87
2023/01/14 04:21:27;;;;;;;3.53;2.30;;;5.70;99.90;;;;;;5019783;28;20204;-83
2023/01/14 04:23:54;;;;;;;3.40;3.10;;;5.60;99.90;;;;;;5011404;28;20212;-84
2023/01/14 04:26:28;;;;;;;3.30;2.55;;;5.70;99.90;;;;;;5026482;28;20272;-85
2023/01/14 04:28:56;;;;;;;4.18;2.80;;;5.50;99.90;;;;;;5031586;28;20209;-84
2023/01/14 04:31:28;;;;;;;5.32;2.60;;;5.30;99.90;;;;;;5010514;28;20263;-85
2023/01/14 04:33:55;;;;;;;5.18;2.65;;;5.20;99.90;;;;;;5019772;28;20212;-86
2023/01/14 04:36:22;;;;;;;3.55;2.20;;;5.20;99.90;;;;;;5004521;28;20208;-83
2023/01/14 04:38:49;;;;;;;4.15;2.45;;;5.10;99.90;;;;;;5020825;28;20219;-86
2023/01/14 04:44:02;;;;;;;1.55;1.45;;;5.10;99.90;;;;;;5027579;28;20264;-89
2023/01/14 04:46:36;;;;;;;2.22;1.83;;;5.10;99.90;;;;;;5028455;28;20217;-83
2023/01/14 04:49:07;;;;;;;3.05;1.80;;;5.00;99.90;;;;;;5011447;28;20208;-82
2023/01/14 04:51:36;;;;;;;2.97;2.05;;;4.80;99.90;;;;;;5016634;28;20208;-83
2023/01/14 04:54:03;;;;;;;2.95;2.20;;;4.80;99.90;;;;;;4999906;28;20224;-83
2023/01/14 04:56:31;;;;;;;4.85;2.97;;;4.80;99.90;;;;;;5028373;28;20208;-83
2023/01/14 04:59:01;;;;;;;5.57;3.20;;;4.90;99.90;;;;;;5024825;28;20212;-84
2023/01/14 05:01:29;;;;;;;3.75;3.35;;;4.90;99.90;;;;;;5011873;28;20200;-83
2023/01/14 05:03:58;;;;;;;5.82;2.60;;;4.90;99.90;;;;;;5017962;28;20513;-83
2023/01/14 05:06:26;;;;;;;4.70;2.92;;;5.00;99.90;;;;;;5019502;28;20260;-85
2023/01/14 05:08:57;;;;;;;2.83;2.30;;;4.80;99.90;;;;;;5000948;28;20567;-84
2023/01/14 05:11:26;;;;;;;2.97;2.45;;;4.60;99.90;;;;;;5023856;28;20361;-83
2023/01/14 05:13:54;;;;;;;3.05;2.40;;;4.70;99.90;;;;;;5007583;28;20236;-84
2023/01/14 05:16:23;;;;;;;4.20;2.45;;;4.90;99.90;;;;;;4996099;28;20713;-84
2023/01/14 05:18:51;;;;;;;9.00;3.03;;;5.00;99.90;;;;;;5015228;28;20201;-85
2023/01/14 05:21:19;;;;;;;3.10;2.80;;;5.10;99.90;;;;;;5027208;28;20499;-86
2023/01/14 05:23:47;;;;;;;2.80;2.50;;;5.30;99.90;;;;;;5007484;28;20284;-87
2023/01/14 05:26:15;;;;;;;6.60;3.53;;;5.30;99.90;;;;;;5018425;28;20216;-84
2023/01/14 05:28:43;;;;;;;4.80;2.78;;;5.20;99.90;;;;;;5021111;28;20227;-83
2023/01/14 05:31:13;;;;;;;4.65;4.22;;;5.10;99.90;;;;;;5019168;28;20275;-84
2023/01/14 05:33:41;;;;;;;3.25;1.95;;;5.00;99.90;;;;;;5019039;28;20820;-84
2023/01/14 05:36:09;;;;;;;4.07;2.83;;;5.00;99.90;;;;;;5004448;28;20207;-88
2023/01/14 05:38:37;;;;;;;4.30;2.75;;;4.80;99.90;;;;;;5021043;28;20308;-85
2023/01/14 05:41:05;;;;;;;2.80;2.20;;;4.90;99.90;;;;;;5001663;28;21042;-87
2023/01/14 05:46:19;;;;;;;2.17;1.98;;;4.80;99.90;;;;;;5018667;28;20248;-85
2023/01/14 05:48:46;;;;;;;4.07;2.40;;;4.80;99.90;;;;;;5016313;28;20224;-89
2023/01/14 05:51:14;;;;;;;2.00;1.80;;;4.80;99.90;;;;;;5017750;28;20401;-86
2023/01/14 05:53:41;;;;;;;2.95;2.08;;;4.90;99.90;;;;;;4987994;28;20295;-86
2023/01/14 05:56:09;;;;;;;5.05;2.63;;;4.80;99.90;;;;;;5022024;28;20287;-90
2023/01/14 05:58:37;;;;;;;4.70;3.28;;;5.00;99.90;;;;;;5017627;28;20213;-86
2023/01/14 06:06:47;;;;;;;7.72;3.17;;;5.10;99.90;;;;;;5020082;28;20273;-86
2023/01/14 06:09:18;;;;;;;5.85;3.20;;;5.50;99.90;;;;;;5003620;28;20202;-86
2023/01/14 06:11:45;;;;;;;8.50;2.65;;;5.70;99.90;;;;;;5021054;28;20204;-87
2023/01/14 06:14:13;;;;;;;3.90;3.22;;;5.80;99.90;;;;;;5020868;28;20238;-87
2023/01/14 06:16:42;;;;;;;6.32;3.35;;;5.80;99.90;;;;;;5004988;28;20500;-85
2023/01/14 06:19:14;;;;;;;4.35;3.08;;;6.10;99.90;;;;;;5003315;28;20255;-86
2023/01/14 06:21:42;;;;;;;3.58;2.92;;;6.00;99.90;;;;;;5015036;28;20216;-89
2023/01/14 06:24:11;;;;;;;3.17;2.88;;;6.10;99.90;;;;;;5021132;28;20243;-87
2023/01/14 06:26:41;;;;;;;4.13;3.00;;;6.10;99.90;;;;;;5005147;28;20208;-90
2023/01/14 06:29:11;;;;;;;4.07;2.78;;;6.10;99.90;;;;;;5005117;28;20221;-89
2023/01/14 06:31:40;;;;;;;6.25;3.35;;;6.10;99.90;;;;;;4988846;28;20778;-87
2023/01/14 06:34:09;;;;;;;7.20;2.90;;;5.80;99.90;;;;;;5006110;28;20213;-88
2023/01/14 06:36:50;;;;;;;11.98;3.50;;;6.00;99.90;;;;;;5021085;28;20265;-87
2023/01/14 06:39:17;;;;;;;4.90;3.47;;;6.00;99.90;;;;;;4986910;28;20212;-88
2023/01/14 06:41:44;;;;;;;4.25;3.00;;;6.00;99.90;;;;;;4991172;28;20264;-90
2023/01/14 06:44:34;;;;;;;5.93;3.22;;;6.00;99.90;;;;;;5010910;28;20243;-88
2023/01/14 06:47:02;;;;;;;4.40;3.65;;;5.80;99.90;;;;;;4991686;28;20201;-86
2023/01/14 06:49:30;;;;;;;4.38;3.47;;;5.70;99.90;;;;;;5006736;28;20239;-82
2023/01/14 06:51:57;;;;;;;3.05;2.70;;;5.50;99.90;;;;;;5002874;28;20201;-87
2023/01/14 06:54:26;;;;;;;6.75;3.40;;;5.60;99.90;;;;;;5030374;28;20231;-87
2023/01/14 06:56:56;;;;;;;7.78;4.25;;;5.40;99.90;;;;;;4993982;28;20424;-85
2023/01/14 06:59:24;;;;;;;4.22;3.05;;;5.30;99.90;;;;;;5021956;28;20293;-87
2023/01/14 07:01:51;;;;;;;7.60;4.50;;;5.10;99.90;;;;;;5001509;28;20302;-84
2023/01/14 07:04:18;;;;;;;7.75;3.90;;;5.30;99.90;;;;;;5022023;28;20205;-83
2023/01/14 07:06:46;;;;;;;6.10;4.03;;;5.20;99.90;;;;;;5004367;28;20421;-88
2023/01/14 07:09:13;;;;;;;5.90;4.05;;;5.30;99.90;;;;;;5024869;28;20224;-86
2023/01/14 07:11:42;;;;;;;3.75;3.08;;;5.30;99.90;;;;;;5018616;28;20204;-87
2023/01/14 07:14:10;;;;;;;11.55;3.85;;;5.60;99.90;;;;;;5024967;28;20740;-84
2023/01/14 07:16:46;;;;;;;5.22;3.65;;;5.40;99.90;;;;;;5023189;28;20219;-85
2023/01/14 07:19:14;;;;;;;4.95;4.32;;;5.60;99.90;;;;;;4989598;28;20212;-86
2023/01/14 07:21:45;;;;;;;4.85;3.63;;;5.60;99.90;;;;;;5016093;28;20209;-85
2023/01/14 07:24:18;;;;;;;8.40;3.75;;;5.50;99.90;;;;;;4990149;28;20205;-87
2023/01/14 07:26:48;;;;;;;6.65;4.13;;;5.50;99.90;;;;;;5020217;28;20386;-86
2023/01/14 07:29:16;;;;;;;6.35;3.85;;;5.50;99.90;;;;;;5024374;28;20272;-88
2023/01/14 07:31:48;;;;;;;4.90;3.50;;;5.50;99.90;;;;;;5024765;28;20509;-83
2023/01/14 07:34:15;;;;;;;11.75;4.90;;;5.50;99.90;;;;;;5019776;28;20229;-87
2023/01/14 07:36:43;;;;;;;14.45;6.45;;;5.50;99.90;;;;;;5004666;28;20240;-89
2023/01/14 07:39:11;;;;;;;15.90;7.40;;;5.60;99.90;;;;;;4996602;28;20528;-89
2023/01/14 07:41:47;;;;;;;9.63;5.82;;;5.60;99.90;;;;;;5026069;28;20205;-90
2023/01/14 07:44:23;;;;;;;13.52;6.63;;;5.90;99.90;;;;;;5025216;28;20211;-86
2023/01/14 07:46:55;;;;;;;13.32;5.25;;;6.20;99.90;;;;;;5022179;28;20200;-81
2023/01/14 07:49:24;;;;;;;8.27;5.20;;;6.40;99.90;;;;;;5014828;28;20240;-83
2023/01/14 07:51:52;;;;;;;11.05;4.72;;;6.60;99.90;;;;;;5019334;28;20205;-87
2023/01/14 07:54:20;;;;;;;11.07;4.28;;;6.70;99.90;;;;;;5017318;28;20219;-88
2023/01/14 07:56:47;;;;;;;4.40;3.25;;;6.80;99.90;;;;;;5004947;28;20215;-88
2023/01/14 07:59:14;;;;;;;5.00;3.53;;;6.80;99.90;;;;;;5009477;28;20247;-86
2023/01/14 08:01:43;;;;;;;4.25;3.20;;;6.80;99.90;;;;;;5015127;28;20456;-92
2023/01/14 08:04:10;;;;;;;9.00;3.55;;;6.80;99.90;;;;;;4991963;28;20196;-86
2023/01/14 08:06:38;;;;;;;6.50;3.63;;;6.70;99.90;;;;;;5010515;28;20276;-90
2023/01/14 08:09:07;;;;;;;3.67;2.80;;;6.70;99.90;;;;;;5014759;28;20441;-88
2023/01/14 08:11:37;;;;;;;6.00;3.13;;;6.90;99.90;;;;;;5071950;22;20310;-88
2023/01/14 08:14:06;;;;;;;3.35;2.30;;;7.20;99.90;;;;;;5006336;28;20287;-87
2023/01/14 08:16:34;;;;;;;4.28;2.72;;;7.40;99.90;;;;;;5008874;28;20212;-85
2023/01/14 08:19:01;;;;;;;4.60;2.75;;;7.50;99.90;;;;;;5023344;28;20388;-85
2023/01/14 08:21:31;;;;;;;4.88;3.17;;;7.60;99.90;;;;;;4993614;28;20284;-86
2023/01/14 08:24:03;;;;;;;3.38;3.17;;;7.60;99.90;;;;;;5020543;28;20375;-86
2023/01/14 08:26:31;;;;;;;4.30;2.90;;;7.80;99.90;;;;;;5010820;28;20220;-87
2023/01/14 08:28:59;;;;;;;3.10;2.80;;;7.80;99.90;;;;;;5005582;28;20209;-87
2023/01/14 08:31:32;;;;;;;3.53;2.72;;;7.80;99.90;;;;;;5020503;28;20204;-85
2023/01/14 08:33:59;;;;;;;4.68;2.80;;;7.90;99.90;;;;;;5006539;28;20292;-86
2023/01/14 08:36:27;;;;;;;14.23;3.88;;;7.90;99.90;;;;;;5023763;28;20398;-84
2023/01/14 08:38:55;;;;;;;6.20;3.30;;;8.10;99.90;;;;;;5020508;28;20202;-85
2023/01/14 08:41:22;;;;;;;4.03;3.28;;;8.20;99.90;;;;;;5022231;28;20379;-85
2023/01/14 08:43:51;;;;;;;6.22;3.33;;;8.30;99.90;;;;;;5021930;28;20211;-86
2023/01/14 08:46:19;;;;;;;13.85;4.57;;;8.50;99.90;;;;;;4999036;28;20430;-85
2023/01/14 08:48:46;;;;;;;5.43;3.80;;;8.60;99.90;;;;;;4996968;28;20214;-84
2023/01/14 08:51:13;;;;;;;2.58;2.33;;;8.70;99.90;;;;;;5021044;28;20214;-85
2023/01/14 08:53:40;;;;;;;12.95;3.88;;;8.60;99.90;;;;;;5019753;28;20230;-83
2023/01/14 08:56:14;;;;;;;5.68;2.70;;;8.70;99.90;;;;;;5023634;28;20246;-86
2023/01/14 08:58:41;;;;;;;5.80;3.33;;;8.70;99.90;;;;;;5023630;28;20221;-86
2023/01/14 09:01:09;;;;;;;5.20;2.03;;;8.80;99.90;;;;;;5021244;28;20414;-85
2023/01/14 09:03:37;;;;;;;7.50;2.60;;;9.10;99.90;;;;;;5002940;28;20204;-87
2023/01/14 09:17:13;;;;;;;3.22;2.22;;;9.70;99.90;;;;;;5018128;28;20210;-86
2023/01/14 09:19:52;;;;;;;5.30;2.63;;;9.80;99.90;;;;;;5025414;28;20207;-86
2023/01/14 09:22:25;;;;;;;2.30;2.10;;;9.50;99.90;;;;;;5019701;28;20447;-85
2023/01/14 09:24:53;;;;;;;3.42;2.33;;;9.40;99.90;;;;;;5006504;28;20400;-86
2023/01/14 09:27:23;;;;;;;5.53;2.55;;;9.70;99.90;;;;;;5034490;28;20506;-87
2023/01/14 09:29:50;;;;;;;3.25;2.30;;;9.80;99.90;;;;;;5023228;28;20208;-89
2023/01/14 09:32:24;;;;;;;3.60;2.25;;;10.30;99.90;;;;;;5035061;28;20196;-88
2023/01/14 09:35:14;;;;;;;3.38;2.60;;;10.20;99.90;;;;;;5018399;28;20251;-87
2023/01/14 09:37:42;;;;;;;3.35;2.53;;;10.30;99.90;;;;;;5018603;28;20196;-88
2023/01/14 09:40:10;;;;;;;4.57;2.30;;;10.50;99.90;;;;;;5014904;28;20399;-88
2023/01/14 09:42:47;;;;;;;3.60;2.25;;;10.50;99.90;;;;;;5014771;28;20231;-86
2023/01/14 09:45:33;;;;;;;5.38;3.10;;;10.50;99.90;;;;;;5015559;28;20215;-89
2023/01/14 09:48:06;;;;;;;10.07;3.13;;;10.40;99.90;;;;;;5012519;28;20185;-89
2023/01/14 09:51:04;;;;;;;9.82;2.10;;;10.40;99.90;;;;;;5006805;28;20210;-88
2023/01/14 09:54:22;;;;;;;6.82;5.57;;;10.60;99.90;;;;;;5025056;28;20230;-86
2023/01/14 09:57:16;;;;;;;6.18;2.80;;;10.60;99.90;;;;;;5010785;28;20199;-86
2023/01/14 10:00:29;;;;;;;2.13;1.95;;;10.30;99.90;;;;;;5009722;28;20232;-88
2023/01/14 10:03:19;;;;;;;5.25;2.47;;;10.30;99.90;;;;;;5006327;28;20203;-87
2023/01/14 10:06:09;;;;;;;3.22;2.25;;;10.30;99.90;;;;;;4979651;28;20275;-87
2023/01/14 10:08:43;;;;;;;5.07;2.65;;;10.40;99.90;;;;;;5014035;28;20207;-86
2023/01/14 10:11:12;;;;;;;6.28;2.80;;;10.70;99.90;;;;;;5030579;28;20414;-87
2023/01/14 10:13:49;;;;;;;2.38;1.92;;;10.50;99.90;;;;;;5026413;28;20243;-87
2023/01/14 10:16:26;;;;;;;7.65;2.55;;;10.70;99.90;;;;;;5037646;28;20393;-86
2023/01/14 10:19:07;;;;;;;11.07;3.88;;;10.90;99.90;;;;;;5011639;28;20297;-86
2023/01/14 10:22:25;;;;;;;5.15;2.65;;;10.60;99.90;;;;;;5006183;28;20220;-87
2023/01/14 10:24:52;;;;;;;5.75;2.63;;;10.60;99.90;;;;;;5013258;28;20212;-87
2023/01/14 10:27:22;;;;;;;3.58;2.17;;;10.80;99.90;;;;;;5009146;28;20229;-87
2023/01/14 10:29:49;;;;;;;3.75;2.20;;;10.90;99.90;;;;;;5002735;28;20207;-85
2023/01/14 10:32:19;;;;;;;3.42;1.63;;;11.10;99.90;;;;;;5011925;28;20250;-88
2023/01/14 10:34:55;;;;;;;2.47;1.77;;;10.90;99.90;;;;;;5012974;28;20239;-87
2023/01/14 10:37:25;;;;;;;3.25;2.47;;;10.70;99.90;;;;;;5031249;28;20205;-87
2023/01/14 10:39:54;;;;;;;7.80;3.45;;;10.70;99.90;;;;;;5027325;28;20188;-86
2023/01/14 10:42:29;;;;;;;10.18;3.05;;;10.90;99.90;;;;;;5030737;28;20279;-88
2023/01/14 10:44:57;;;;;;;4.45;2.20;;;10.70;99.90;;;;;;5008368;28;20202;-88
2023/01/14 10:47:26;;;;;;;4.00;3.00;;;10.40;99.90;;;;;;5028286;28;20219;-88
2023/01/14 10:50:02;;;;;;;4.07;2.33;;;10.30;99.90;;;;;;5016656;28;20310;-85
2023/01/14 10:52:32;;;;;;;2.47;2.28;;;10.50;99.90;;;;;;5009884;28;20195;-88
2023/01/14 10:55:12;;;;;;;6.30;4.47;;;10.40;99.90;;;;;;5030049;28;20247;-85
2023/01/14 10:57:57;;;;;;;4.95;3.08;;;10.50;99.90;;;;;;5030095;28;20187;-87
2023/01/14 11:00:38;;;;;;;6.13;3.70;;;10.60;99.90;;;;;;5027715;28;20216;-86
2023/01/14 11:03:22;;;;;;;8.13;2.78;;;10.90;99.90;;;;;;5161223;23;20192;-89
2023/01/14 11:06:29;;;;;;;7.85;3.85;;;11.10;99.90;;;;;;5028219;28;20233;-86
2023/01/14 11:08:57;;;;;;;9.18;5.20;;;11.10;99.90;;;;;;4984169;28;20219;-88
2023/01/14 11:11:36;;;;;;;14.00;6.38;;;11.20;99.90;;;;;;5030241;28;20200;-92
2023/01/14 11:14:28;;;;;;;14.75;6.95;;;11.10;99.90;;;;;;5031068;28;20496;-84
2023/01/14 11:16:56;;;;;;;10.25;4.90;;;11.20;99.90;;;;;;5017810;28;20193;-88
2023/01/14 11:19:24;;;;;;;10.80;5.18;;;11.40;99.90;;;;;;5003842;28;20223;-86
2023/01/14 11:21:55;;;;;;;5.03;3.45;;;11.60;99.90;;;;;;5004149;28;20264;-89
2023/01/14 11:24:35;;;;;;;5.47;2.25;;;11.50;99.90;;;;;;5014362;28;20268;-90
2023/01/14 11:27:14;;;;;;;7.18;3.55;;;11.50;99.90;;;;;;5014103;28;20516;-89
2023/01/14 11:29:54;;;;;;;9.32;3.63;;;11.40;99.90;;;;;;5022791;28;20217;-86
2023/01/14 11:32:28;;;;;;;7.22;3.55;;;11.20;99.90;;;;;;4999311;28;20201;-87
2023/01/14 11:35:22;;;;;;;7.47;2.75;;;11.00;99.90;;;;;;5093729;23;20251;-89
2023/01/14 11:37:53;;;;;;;8.00;3.00;;;10.90;99.90;;;;;;5318991;23;20236;-87
2023/01/14 11:43:24;;;;;;;3.25;1.80;;;10.80;99.90;;;;;;5032063;28;20203;-84
2023/01/14 11:46:06;;;;;;;7.40;2.53;;;10.70;99.90;;;;;;4995010;28;20205;-88
2023/01/14 11:48:33;;;;;;;3.85;2.00;;;11.00;99.90;;;;;;5007449;28;20478;-89
2023/01/14 11:51:02;;;;;;;4.97;2.20;;;11.10;99.90;;;;;;5010736;28;20212;-84
2023/01/14 11:53:45;;;;;;;2.88;1.70;;;11.10;99.90;;;;;;5024985;28;20260;-88
2023/01/14 11:56:22;;;;;;;6.22;2.55;;;11.10;99.90;;;;;;4998203;28;20189;-86
2023/01/14 11:58:49;;;;;;;6.03;3.30;;;10.90;99.90;;;;;;5024702;28;20190;-88
2023/01/14 12:01:19;;;;;;;6.75;3.38;;;10.80;99.90;;;;;;5003384;28;20215;-85
2023/01/14 12:04:19;;;;;;;4.60;3.15;;;10.60;99.90;;;;;;5010447;28;20274;-86
2023/01/14 12:06:56;;;;;;;6.80;5.32;;;10.60;99.90;;;;;;4988085;28;20268;-90
2023/01/14 12:09:35;;;;;;;2.75;2.33;;;10.20;99.90;;;;;;5021405;28;20558;-86
2023/01/14 12:12:18;;;;;;;5.07;2.50;;;10.00;99.90;;;;;;5005388;28;20378;-86
2023/01/14 12:17:49;;;;;;;6.53;3.08;;;9.70;99.90;;;;;;5026574;28;20363;-86
2023/01/14 12:20:24;;;;;;;7.10;3.78;;;9.50;99.90;;;;;;5011180;28;20286;-82
2023/01/14 12:22:57;;;;;;;12.98;3.58;;;9.50;99.90;;;;;;5013255;28;20215;-81
2023/01/14 12:25:30;;;;;;;7.40;3.42;;;9.30;99.90;;;;;;5010444;28;20208;-86
2023/01/14 12:28:10;;;;;;;9.75;5.78;;;9.30;99.90;;;;;;5008432;28;20223;-84
2023/01/14 12:30:46;;;;;;;6.88;3.20;;;9.20;99.90;;;;;;5025074;28;20223;-85
2023/01/14 12:33:21;;;;;;;6.45;2.90;;;9.20;99.90;;;;;;5013734;28;20215;-90
2023/01/14 12:36:08;;;;;;;7.05;4.50;;;9.20;99.90;;;;;;5034161;28;20230;-88
2023/01/14 12:47:27;;;;;;;5.93;2.75;;;9.00;99.90;;;;;;5018872;28;20208;-84
2023/01/14 12:49:54;;;;;;;3.70;2.17;;;9.00;99.90;;;;;;4996982;28;20280;-87
2023/01/14 12:52:27;;;;;;;6.53;3.30;;;9.00;99.90;;;;;;5031019;28;20215;-88
2023/01/14 12:54:57;;;;;;;6.20;3.70;;;9.00;99.90;;;;;;4996737;28;20302;-83
2023/01/14 12:57:25;;;;;;;5.18;2.60;;;9.00;99.90;;;;;;5006209;28;20410;-88
2023/01/14 13:00:05;;;;;;;4.13;2.33;;;9.10;99.90;;;;;;5023930;28;20568;-84
2023/01/14 13:02:41;;;;;;;4.65;3.03;;;9.00;99.90;;;;;;5021686;28;20225;-87
2023/01/14 13:05:24;;;;;;;2.00;1.77;;;8.90;99.90;;;;;;4986732;28;20481;-86
2023/01/14 13:07:55;;;;;;;4.00;2.03;;;9.00;99.90;;;;;;5001146;28;20218;-86
2023/01/14 13:10:32;;;;;;;4.72;1.70;;;9.00;99.90;;;;;;5015542;28;20234;-82
2023/01/14 13:13:01;;;;;;;9.32;2.60;;;8.80;99.90;;;;;;5016857;28;20198;-84
2023/01/14 13:15:37;;;;;;;2.63;2.40;;;8.80;99.90;;;;;;5020894;28;20241;-85
2023/01/14 13:18:34;;;;;;;2.92;1.65;;;8.70;99.90;;;;;;5008666;28;20298;-86
2023/01/14 13:21:07;;;;;;;5.60;2.50;;;8.60;99.90;;;;;;5017462;28;20742;-86
2023/01/14 13:23:37;;;;;;;7.85;2.72;;;8.60;99.90;;;;;;4996301;28;20278;-88
2023/01/14 13:26:17;;;;;;;4.20;2.20;;;8.60;99.90;;;;;;5001337;28;20291;-90
2023/01/14 13:29:23;;;;;;;6.53;3.00;;;8.50;99.90;;;;;;5001794;28;20208;-88
2023/01/14 13:31:52;;;;;;;6.30;2.70;;;8.30;99.90;;;;;;5023375;28;20229;-86
2023/01/14 13:34:22;;;;;;;4.95;2.40;;;8.20;99.90;;;;;;5006832;28;20238;-84
2023/01/14 13:36:56;;;;;;;3.78;3.08;;;8.30;99.90;;;;;;5001275;28;20229;-89
2023/01/14 13:39:24;;;;;;;5.80;2.40;;;8.10;99.90;;;;;;5006388;28;20217;-82
2023/01/14 13:41:53;;;;;;;5.93;2.30;;;8.10;99.90;;;;;;5007603;28;20210;-87
2023/01/14 13:44:25;;;;;;;3.35;3.03;;;8.00;99.90;;;;;;5025318;28;20208;-86
2023/01/14 13:47:17;;;;;;;5.30;3.28;;;7.90;99.90;;;;;;5017765;28;20221;-87
2023/01/14 13:50:21;;;;;;;6.00;3.28;;;8.00;99.90;;;;;;5011211;28;20198;-87
2023/01/14 13:52:51;;;;;;;4.93;3.10;;;7.90;99.90;;;;;;4988900;28;20402;-85
2023/01/14 13:55:25;;;;;;;5.78;3.83;;;7.90;99.90;;;;;;5006948;28;20249;-84
2023/01/14 13:57:56;;;;;;;3.42;2.83;;;8.10;99.90;;;;;;5021832;28;20217;-84
2023/01/14 14:00:40;;;;;;;2.90;2.60;;;8.00;99.90;;;;;;5007042;28;20213;-88
2023/01/14 14:03:33;;;;;;;5.10;2.80;;;8.10;99.90;;;;;;5014719;28;20205;-84
2023/01/14 14:06:19;;;;;;;7.63;3.28;;;8.00;99.90;;;;;;4997260;28;20356;-83
2023/01/14 14:09:04;;;;;;;5.85;3.00;;;8.10;99.90;;;;;;5016178;28;20208;-84
2023/01/14 14:11:48;;;;;;;5.28;3.40;;;8.00;99.90;;;;;;5014252;28;20198;-88
2023/01/14 14:14:20;;;;;;;5.10;2.88;;;8.10;99.90;;;;;;5021896;28;20225;-88
2023/01/14 14:16:52;;;;;;;7.60;2.78;;;8.00;99.90;;;;;;5027472;28;20192;-92